Terminal Aerodrome Forecast
Issued by NWS Quad Cities IA IL

Home | Current Version | Previous Version | Text Only | Print | Product List | Glossary On
Versions: 1 2 3 4 5 6 7 8 9 10 11 12 13 14 15 16 17 18 19 20 21 22 23 24 25 26 27
000
FTUS43 KDVN 221531 AAB
TAFMLI
TAF AMD
KMLI 221531Z 2216/2312 18008KT 6SM -RA BR VCTS BKN035CB OVC050
     FM221600 23005KT P6SM VCTS BKN060CB
      TEMPO 2216/2217 4SM TSRA BR SCT030 BKN050CB
     FM230100 VRB02KT P6SM BKN120
     FM230800 VRB02KT 2SM BR OVC100=

USA.gov is the U.S. government's official web portal to all federal, state and local government web resources and services.